sensor_id;sensor_type;location;lat;lon;timestamp;P1;durP1;ratioP1;P2;durP2;ratioP2
7667;SDS011;3876;42.204;24.686;2023-10-08T00:00:25;1.67;;;1.43;;
7667;SDS011;3876;42.204;24.686;2023-10-08T00:03:08;1.33;;;1.30;;
7667;SDS011;3876;42.204;24.686;2023-10-08T00:05:35;1.50;;;1.50;;
7667;SDS011;3876;42.204;24.686;2023-10-08T00:08:02;2.10;;;1.50;;
7667;SDS011;3876;42.204;24.686;2023-10-08T00:10:33;3.20;;;1.90;;
7667;SDS011;3876;42.204;24.686;2023-10-08T00:13:03;2.60;;;1.20;;
7667;SDS011;3876;42.204;24.686;2023-10-08T00:15:33;1.80;;;1.70;;
7667;SDS011;3876;42.204;24.686;2023-10-08T00:18:01;1.07;;;1.07;;
7667;SDS011;3876;42.204;24.686;2023-10-08T00:20:30;1.63;;;1.63;;
7667;SDS011;3876;42.204;24.686;2023-10-08T00:23:01;1.47;;;1.37;;
7667;SDS011;3876;42.204;24.686;2023-10-08T00:25:32;4.43;;;1.60;;
7667;SDS011;3876;42.204;24.686;2023-10-08T00:28:07;1.33;;;1.33;;
7667;SDS011;3876;42.204;24.686;2023-10-08T00:30:39;1.73;;;1.63;;
7667;SDS011;3876;42.204;24.686;2023-10-08T00:33:06;2.73;;;1.57;;
7667;SDS011;3876;42.204;24.686;2023-10-08T00:35:37;1.77;;;1.33;;
7667;SDS011;3876;42.204;24.686;2023-10-08T00:38:06;1.60;;;1.50;;
7667;SDS011;3876;42.204;24.686;2023-10-08T00:40:39;4.93;;;1.90;;
7667;SDS011;3876;42.204;24.686;2023-10-08T00:43:12;5.70;;;1.80;;
7667;SDS011;3876;42.204;24.686;2023-10-08T00:45:56;2.10;;;1.57;;
7667;SDS011;3876;42.204;24.686;2023-10-08T00:48:24;3.37;;;2.07;;
7667;SDS011;3876;42.204;24.686;2023-10-08T00:50:54;1.80;;;1.70;;
7667;SDS011;3876;42.204;24.686;2023-10-08T00:53:34;2.23;;;2.13;;
7667;SDS011;3876;42.204;24.686;2023-10-08T00:56:04;7.27;;;2.30;;
7667;SDS011;3876;42.204;24.686;2023-10-08T00:58:40;3.03;;;1.90;;
7667;SDS011;3876;42.204;24.686;2023-10-08T01:01:11;2.23;;;1.97;;
7667;SDS011;3876;42.204;24.686;2023-10-08T01:03:41;5.10;;;2.13;;
7667;SDS011;3876;42.204;24.686;2023-10-08T01:06:10;5.50;;;1.60;;
7667;SDS011;3876;42.204;24.686;2023-10-08T01:08:37;2.73;;;2.53;;
7667;SDS011;3876;42.204;24.686;2023-10-08T01:11:18;2.27;;;2.17;;
7667;SDS011;3876;42.204;24.686;2023-10-08T01:13:52;3.10;;;2.03;;
7667;SDS011;3876;42.204;24.686;2023-10-08T01:16:20;3.80;;;2.63;;
7667;SDS011;3876;42.204;24.686;2023-10-08T01:18:47;3.43;;;3.13;;
7667;SDS011;3876;42.204;24.686;2023-10-08T01:21:19;8.07;;;1.97;;
7667;SDS011;3876;42.204;24.686;2023-10-08T01:24:00;3.53;;;2.70;;
7667;SDS011;3876;42.204;24.686;2023-10-08T01:26:30;5.03;;;2.53;;
7667;SDS011;3876;42.204;24.686;2023-10-08T01:28:58;2.20;;;2.00;;
7667;SDS011;3876;42.204;24.686;2023-10-08T01:31:28;2.30;;;2.20;;
7667;SDS011;3876;42.204;24.686;2023-10-08T01:33:57;3.30;;;2.30;;
7667;SDS011;3876;42.204;24.686;2023-10-08T01:36:24;2.23;;;2.03;;
7667;SDS011;3876;42.204;24.686;2023-10-08T01:38:51;4.13;;;3.37;;
7667;SDS011;3876;42.204;24.686;2023-10-08T01:41:21;1.80;;;1.70;;
7667;SDS011;3876;42.204;24.686;2023-10-08T01:43:55;2.37;;;2.27;;
7667;SDS011;3876;42.204;24.686;2023-10-08T01:46:23;1.70;;;1.70;;
7667;SDS011;3876;42.204;24.686;2023-10-08T01:48:52;1.73;;;1.63;;
7667;SDS011;3876;42.204;24.686;2023-10-08T01:51:25;4.23;;;2.40;;
7667;SDS011;3876;42.204;24.686;2023-10-08T01:54:02;2.07;;;1.97;;
7667;SDS011;3876;42.204;24.686;2023-10-08T01:56:37;3.33;;;2.43;;
7667;SDS011;3876;42.204;24.686;2023-10-08T01:59:06;3.07;;;1.50;;
7667;SDS011;3876;42.204;24.686;2023-10-08T02:01:34;1.87;;;1.77;;
7667;SDS011;3876;42.204;24.686;2023-10-08T02:04:01;3.87;;;1.87;;
7667;SDS011;3876;42.204;24.686;2023-10-08T02:06:29;2.10;;;2.00;;
7667;SDS011;3876;42.204;24.686;2023-10-08T02:08:56;1.63;;;1.53;;
7667;SDS011;3876;42.204;24.686;2023-10-08T02:11:23;2.93;;;1.73;;
7667;SDS011;3876;42.204;24.686;2023-10-08T02:13:54;2.37;;;2.17;;
7667;SDS011;3876;42.204;24.686;2023-10-08T02:16:21;2.53;;;1.33;;
7667;SDS011;3876;42.204;24.686;2023-10-08T02:18:48;4.43;;;2.23;;
7667;SDS011;3876;42.204;24.686;2023-10-08T02:21:16;2.27;;;2.17;;
7667;SDS011;3876;42.204;24.686;2023-10-08T02:23:43;7.80;;;2.07;;
7667;SDS011;3876;42.204;24.686;2023-10-08T02:26:10;4.73;;;3.27;;
7667;SDS011;3876;42.204;24.686;2023-10-08T02:28:37;7.43;;;4.97;;
7667;SDS011;3876;42.204;24.686;2023-10-08T02:31:05;5.60;;;5.17;;
7667;SDS011;3876;42.204;24.686;2023-10-08T02:33:33;5.77;;;4.53;;
7667;SDS011;3876;42.204;24.686;2023-10-08T02:36:02;10.73;;;6.33;;
7667;SDS011;3876;42.204;24.686;2023-10-08T02:38:30;24.37;;;8.80;;
7667;SDS011;3876;42.204;24.686;2023-10-08T02:41:03;17.03;;;7.63;;
7667;SDS011;3876;42.204;24.686;2023-10-08T02:43:31;20.30;;;9.70;;
7667;SDS011;3876;42.204;24.686;2023-10-08T02:45:59;13.57;;;8.00;;
7667;SDS011;3876;42.204;24.686;2023-10-08T02:48:27;15.20;;;6.40;;
7667;SDS011;3876;42.204;24.686;2023-10-08T02:50:55;6.00;;;4.10;;
7667;SDS011;3876;42.204;24.686;2023-10-08T02:53:32;6.23;;;2.07;;
7667;SDS011;3876;42.204;24.686;2023-10-08T02:55:59;3.30;;;2.67;;
7667;SDS011;3876;42.204;24.686;2023-10-08T02:58:26;3.97;;;2.47;;
7667;SDS011;3876;42.204;24.686;2023-10-08T03:00:56;4.70;;;1.73;;
7667;SDS011;3876;42.204;24.686;2023-10-08T03:03:22;5.80;;;2.13;;
7667;SDS011;3876;42.204;24.686;2023-10-08T03:05:52;2.23;;;2.10;;
7667;SDS011;3876;42.204;24.686;2023-10-08T03:08:21;5.63;;;1.70;;
7667;SDS011;3876;42.204;24.686;2023-10-08T03:10:49;3.80;;;2.47;;
7667;SDS011;3876;42.204;24.686;2023-10-08T03:13:20;9.87;;;2.17;;
7667;SDS011;3876;42.204;24.686;2023-10-08T03:15:47;2.37;;;2.23;;
7667;SDS011;3876;42.204;24.686;2023-10-08T03:18:33;1.97;;;1.87;;
7667;SDS011;3876;42.204;24.686;2023-10-08T03:21:03;4.07;;;2.87;;
7667;SDS011;3876;42.204;24.686;2023-10-08T03:23:31;5.50;;;2.73;;
7667;SDS011;3876;42.204;24.686;2023-10-08T03:26:00;3.73;;;2.27;;
7667;SDS011;3876;42.204;24.686;2023-10-08T03:28:35;3.17;;;2.03;;
7667;SDS011;3876;42.204;24.686;2023-10-08T03:31:03;3.20;;;2.80;;
7667;SDS011;3876;42.204;24.686;2023-10-08T03:33:31;2.23;;;2.13;;
7667;SDS011;3876;42.204;24.686;2023-10-08T03:36:00;12.63;;;2.33;;
7667;SDS011;3876;42.204;24.686;2023-10-08T03:38:36;2.50;;;2.27;;
7667;SDS011;3876;42.204;24.686;2023-10-08T03:41:16;3.30;;;3.00;;
7667;SDS011;3876;42.204;24.686;2023-10-08T03:43:45;4.57;;;2.63;;
7667;SDS011;3876;42.204;24.686;2023-10-08T03:46:18;2.00;;;1.70;;
7667;SDS011;3876;42.204;24.686;2023-10-08T03:48:48;2.90;;;2.43;;
7667;SDS011;3876;42.204;24.686;2023-10-08T03:51:16;3.73;;;3.00;;
7667;SDS011;3876;42.204;24.686;2023-10-08T03:53:47;7.40;;;3.87;;
7667;SDS011;3876;42.204;24.686;2023-10-08T03:56:41;3.10;;;2.70;;
7667;SDS011;3876;42.204;24.686;2023-10-08T03:59:12;6.30;;;2.37;;
7667;SDS011;3876;42.204;24.686;2023-10-08T04:01:39;2.00;;;1.87;;
7667;SDS011;3876;42.204;24.686;2023-10-08T04:04:07;6.53;;;2.37;;
7667;SDS011;3876;42.204;24.686;2023-10-08T04:06:38;2.30;;;2.17;;
7667;SDS011;3876;42.204;24.686;2023-10-08T04:09:13;5.70;;;2.17;;
7667;SDS011;3876;42.204;24.686;2023-10-08T04:11:49;2.50;;;1.73;;
7667;SDS011;3876;42.204;24.686;2023-10-08T04:14:21;5.37;;;1.87;;
7667;SDS011;3876;42.204;24.686;2023-10-08T04:16:48;4.10;;;2.07;;
7667;SDS011;3876;42.204;24.686;2023-10-08T04:19:16;2.40;;;2.30;;
7667;SDS011;3876;42.204;24.686;2023-10-08T04:21:44;2.10;;;1.20;;
7667;SDS011;3876;42.204;24.686;2023-10-08T04:24:20;3.20;;;2.07;;
7667;SDS011;3876;42.204;24.686;2023-10-08T04:26:55;1.47;;;1.40;;
7667;SDS011;3876;42.204;24.686;2023-10-08T04:29:27;3.90;;;2.00;;
7667;SDS011;3876;42.204;24.686;2023-10-08T04:31:57;5.00;;;1.97;;
7667;SDS011;3876;42.204;24.686;2023-10-08T04:34:33;1.27;;;1.27;;
7667;SDS011;3876;42.204;24.686;2023-10-08T04:37:00;3.53;;;1.83;;
7667;SDS011;3876;42.204;24.686;2023-10-08T04:39:30;1.47;;;1.37;;
7667;SDS011;3876;42.204;24.686;2023-10-08T04:42:00;2.10;;;1.90;;
7667;SDS011;3876;42.204;24.686;2023-10-08T04:44:32;3.20;;;1.20;;
7667;SDS011;3876;42.204;24.686;2023-10-08T04:46:59;2.40;;;2.23;;
7667;SDS011;3876;42.204;24.686;2023-10-08T04:49:31;1.03;;;1.03;;
7667;SDS011;3876;42.204;24.686;2023-10-08T04:51:59;1.50;;;1.50;;
7667;SDS011;3876;42.204;24.686;2023-10-08T04:54:31;1.30;;;1.20;;
7667;SDS011;3876;42.204;24.686;2023-10-08T04:56:59;1.27;;;1.23;;
7667;SDS011;3876;42.204;24.686;2023-10-08T04:59:26;1.47;;;1.43;;
7667;SDS011;3876;42.204;24.686;2023-10-08T05:01:59;1.57;;;1.47;;
7667;SDS011;3876;42.204;24.686;2023-10-08T05:04:44;2.30;;;1.40;;
7667;SDS011;3876;42.204;24.686;2023-10-08T05:07:21;5.03;;;1.83;;
7667;SDS011;3876;42.204;24.686;2023-10-08T05:10:07;6.00;;;2.80;;
7667;SDS011;3876;42.204;24.686;2023-10-08T05:12:55;7.20;;;4.93;;
7667;SDS011;3876;42.204;24.686;2023-10-08T05:15:40;9.60;;;5.93;;
7667;SDS011;3876;42.204;24.686;2023-10-08T05:18:15;21.73;;;8.77;;
7667;SDS011;3876;42.204;24.686;2023-10-08T05:20:49;18.40;;;8.67;;
7667;SDS011;3876;42.204;24.686;2023-10-08T05:23:41;31.03;;;12.30;;
7667;SDS011;3876;42.204;24.686;2023-10-08T05:26:36;19.40;;;9.03;;
7667;SDS011;3876;42.204;24.686;2023-10-08T05:29:07;10.27;;;7.27;;
7667;SDS011;3876;42.204;24.686;2023-10-08T05:31:48;17.03;;;7.27;;
7667;SDS011;3876;42.204;24.686;2023-10-08T05:34:35;20.10;;;8.37;;
7667;SDS011;3876;42.204;24.686;2023-10-08T05:37:07;13.63;;;6.10;;
7667;SDS011;3876;42.204;24.686;2023-10-08T05:39:57;11.37;;;6.53;;
7667;SDS011;3876;42.204;24.686;2023-10-08T05:42:38;15.67;;;6.37;;
7667;SDS011;3876;42.204;24.686;2023-10-08T05:45:12;13.20;;;5.63;;
7667;SDS011;3876;42.204;24.686;2023-10-08T05:47:55;6.07;;;5.27;;
7667;SDS011;3876;42.204;24.686;2023-10-08T05:50:38;9.80;;;5.07;;
7667;SDS011;3876;42.204;24.686;2023-10-08T05:53:07;8.33;;;5.53;;
7667;SDS011;3876;42.204;24.686;2023-10-08T05:55:54;5.70;;;3.63;;
7667;SDS011;3876;42.204;24.686;2023-10-08T05:58:42;7.63;;;2.80;;
7667;SDS011;3876;42.204;24.686;2023-10-08T06:01:25;4.07;;;3.80;;
7667;SDS011;3876;42.204;24.686;2023-10-08T06:04:04;2.83;;;2.60;;
7667;SDS011;3876;42.204;24.686;2023-10-08T06:06:46;2.77;;;2.57;;
7667;SDS011;3876;42.204;24.686;2023-10-08T06:09:22;5.20;;;3.47;;
7667;SDS011;3876;42.204;24.686;2023-10-08T06:12:00;2.20;;;2.00;;
7667;SDS011;3876;42.204;24.686;2023-10-08T06:14:36;2.47;;;2.03;;
7667;SDS011;3876;42.204;24.686;2023-10-08T06:17:18;1.87;;;1.50;;
7667;SDS011;3876;42.204;24.686;2023-10-08T06:20:20;4.53;;;2.10;;
7667;SDS011;3876;42.204;24.686;2023-10-08T06:22:50;1.97;;;1.87;;
7667;SDS011;3876;42.204;24.686;2023-10-08T06:25:24;3.23;;;2.20;;
7667;SDS011;3876;42.204;24.686;2023-10-08T06:27:53;5.43;;;2.27;;
7667;SDS011;3876;42.204;24.686;2023-10-08T06:30:22;2.37;;;1.90;;
7667;SDS011;3876;42.204;24.686;2023-10-08T06:32:54;3.23;;;2.30;;
7667;SDS011;3876;42.204;24.686;2023-10-08T06:35:21;2.50;;;1.87;;
7667;SDS011;3876;42.204;24.686;2023-10-08T06:37:51;3.57;;;1.83;;
7667;SDS011;3876;42.204;24.686;2023-10-08T06:40:21;1.20;;;1.10;;
7667;SDS011;3876;42.204;24.686;2023-10-08T06:43:08;1.13;;;1.13;;
7667;SDS011;3876;42.204;24.686;2023-10-08T06:45:41;5.27;;;1.80;;
7667;SDS011;3876;42.204;24.686;2023-10-08T06:48:09;3.63;;;1.60;;
7667;SDS011;3876;42.204;24.686;2023-10-08T06:50:43;1.23;;;1.23;;
7667;SDS011;3876;42.204;24.686;2023-10-08T06:53:10;1.17;;;1.17;;
7667;SDS011;3876;42.204;24.686;2023-10-08T06:55:39;1.57;;;1.47;;
7667;SDS011;3876;42.204;24.686;2023-10-08T06:58:06;1.47;;;1.10;;
7667;SDS011;3876;42.204;24.686;2023-10-08T07:00:34;1.53;;;1.43;;
7667;SDS011;3876;42.204;24.686;2023-10-08T07:03:13;3.20;;;0.93;;
7667;SDS011;3876;42.204;24.686;2023-10-08T07:05:41;2.97;;;1.20;;
7667;SDS011;3876;42.204;24.686;2023-10-08T07:08:10;1.47;;;1.13;;
7667;SDS011;3876;42.204;24.686;2023-10-08T07:10:39;1.80;;;1.40;;
7667;SDS011;3876;42.204;24.686;2023-10-08T07:13:07;1.60;;;1.33;;
7667;SDS011;3876;42.204;24.686;2023-10-08T07:15:35;1.37;;;1.27;;
7667;SDS011;3876;42.204;24.686;2023-10-08T07:18:05;1.63;;;1.53;;
7667;SDS011;3876;42.204;24.686;2023-10-08T07:20:39;1.57;;;1.47;;
7667;SDS011;3876;42.204;24.686;2023-10-08T07:23:10;1.37;;;0.90;;
7667;SDS011;3876;42.204;24.686;2023-10-08T07:25:51;3.70;;;1.10;;
7667;SDS011;3876;42.204;24.686;2023-10-08T07:28:22;1.27;;;1.27;;
7667;SDS011;3876;42.204;24.686;2023-10-08T07:30:50;2.40;;;1.23;;
7667;SDS011;3876;42.204;24.686;2023-10-08T07:33:17;1.47;;;0.97;;
7667;SDS011;3876;42.204;24.686;2023-10-08T07:35:46;1.57;;;1.00;;
7667;SDS011;3876;42.204;24.686;2023-10-08T07:38:22;4.55;;;1.33;;
7667;SDS011;3876;42.204;24.686;2023-10-08T07:40:52;1.90;;;0.95;;
7667;SDS011;3876;42.204;24.686;2023-10-08T07:43:20;0.70;;;0.70;;
7667;SDS011;3876;42.204;24.686;2023-10-08T07:45:47;0.90;;;0.90;;
7667;SDS011;3876;42.204;24.686;2023-10-08T07:48:14;9.53;;;0.93;;
7667;SDS011;3876;42.204;24.686;2023-10-08T07:50:42;4.97;;;1.13;;
7667;SDS011;3876;42.204;24.686;2023-10-08T07:53:12;1.60;;;1.50;;
7667;SDS011;3876;42.204;24.686;2023-10-08T07:55:46;1.13;;;0.70;;
7667;SDS011;3876;42.204;24.686;2023-10-08T07:58:14;1.47;;;1.33;;
7667;SDS011;3876;42.204;24.686;2023-10-08T08:00:42;1.03;;;1.03;;
7667;SDS011;3876;42.204;24.686;2023-10-08T08:03:19;0.97;;;0.87;;
7667;SDS011;3876;42.204;24.686;2023-10-08T08:05:47;0.80;;;0.80;;
7667;SDS011;3876;42.204;24.686;2023-10-08T08:08:19;1.20;;;1.10;;
7667;SDS011;3876;42.204;24.686;2023-10-08T08:10:48;0.80;;;0.73;;
7667;SDS011;3876;42.204;24.686;2023-10-08T08:13:23;0.77;;;0.77;;
7667;SDS011;3876;42.204;24.686;2023-10-08T08:15:53;0.90;;;0.80;;
7667;SDS011;3876;42.204;24.686;2023-10-08T08:18:23;1.30;;;1.20;;
7667;SDS011;3876;42.204;24.686;2023-10-08T08:20:58;2.70;;;1.07;;
7667;SDS011;3876;42.204;24.686;2023-10-08T08:23:28;2.53;;;0.77;;
7667;SDS011;3876;42.204;24.686;2023-10-08T08:25:56;1.23;;;0.80;;
7667;SDS011;3876;42.204;24.686;2023-10-08T08:28:38;1.67;;;1.20;;
7667;SDS011;3876;42.204;24.686;2023-10-08T08:31:05;0.77;;;0.77;;
7667;SDS011;3876;42.204;24.686;2023-10-08T08:33:39;0.70;;;0.70;;
7667;SDS011;3876;42.204;24.686;2023-10-08T08:36:19;3.57;;;1.10;;
7667;SDS011;3876;42.204;24.686;2023-10-08T08:38:48;1.00;;;0.77;;
7667;SDS011;3876;42.204;24.686;2023-10-08T08:41:15;3.83;;;0.77;;
7667;SDS011;3876;42.204;24.686;2023-10-08T08:43:44;1.77;;;1.07;;
7667;SDS011;3876;42.204;24.686;2023-10-08T08:46:14;1.47;;;0.80;;
7667;SDS011;3876;42.204;24.686;2023-10-08T08:48:42;2.97;;;1.03;;
7667;SDS011;3876;42.204;24.686;2023-10-08T08:51:10;4.60;;;0.87;;
7667;SDS011;3876;42.204;24.686;2023-10-08T08:53:38;4.20;;;0.97;;
7667;SDS011;3876;42.204;24.686;2023-10-08T08:56:08;0.60;;;0.60;;
7667;SDS011;3876;42.204;24.686;2023-10-08T08:58:36;2.67;;;0.60;;
7667;SDS011;3876;42.204;24.686;2023-10-08T09:01:05;0.70;;;0.70;;
7667;SDS011;3876;42.204;24.686;2023-10-08T09:03:34;9.47;;;0.70;;
7667;SDS011;3876;42.204;24.686;2023-10-08T09:06:02;1.23;;;0.63;;
7667;SDS011;3876;42.204;24.686;2023-10-08T09:08:32;1.90;;;0.70;;
7667;SDS011;3876;42.204;24.686;2023-10-08T09:11:00;0.73;;;0.73;;
7667;SDS011;3876;42.204;24.686;2023-10-08T09:13:31;1.30;;;0.90;;
7667;SDS011;3876;42.204;24.686;2023-10-08T09:16:02;0.80;;;0.80;;
7667;SDS011;3876;42.204;24.686;2023-10-08T09:18:33;0.97;;;0.97;;
7667;SDS011;3876;42.204;24.686;2023-10-08T09:21:07;5.87;;;0.70;;
7667;SDS011;3876;42.204;24.686;2023-10-08T09:23:39;0.80;;;0.80;;
7667;SDS011;3876;42.204;24.686;2023-10-08T09:26:08;2.13;;;0.93;;
7667;SDS011;3876;42.204;24.686;2023-10-08T09:28:37;0.67;;;0.50;;
7667;SDS011;3876;42.204;24.686;2023-10-08T09:31:06;3.30;;;0.93;;
7667;SDS011;3876;42.204;24.686;2023-10-08T09:33:36;0.60;;;0.60;;
7667;SDS011;3876;42.204;24.686;2023-10-08T09:36:03;0.70;;;0.70;;
7667;SDS011;3876;42.204;24.686;2023-10-08T09:38:32;1.43;;;0.90;;
7667;SDS011;3876;42.204;24.686;2023-10-08T09:41:00;1.80;;;1.03;;
7667;SDS011;3876;42.204;24.686;2023-10-08T09:43:28;0.87;;;0.87;;
7667;SDS011;3876;42.204;24.686;2023-10-08T09:46:00;0.50;;;0.50;;
7667;SDS011;3876;42.204;24.686;2023-10-08T09:48:36;1.10;;;0.90;;
7667;SDS011;3876;42.204;24.686;2023-10-08T09:51:06;0.70;;;0.70;;
7667;SDS011;3876;42.204;24.686;2023-10-08T09:53:40;0.60;;;0.60;;
7667;SDS011;3876;42.204;24.686;2023-10-08T09:56:14;0.50;;;0.47;;
7667;SDS011;3876;42.204;24.686;2023-10-08T09:58:43;0.50;;;0.50;;
7667;SDS011;3876;42.204;24.686;2023-10-08T10:01:12;1.17;;;0.90;;
7667;SDS011;3876;42.204;24.686;2023-10-08T10:03:39;0.63;;;0.63;;
7667;SDS011;3876;42.204;24.686;2023-10-08T10:06:17;0.70;;;0.70;;
7667;SDS011;3876;42.204;24.686;2023-10-08T10:08:45;0.70;;;0.70;;
7667;SDS011;3876;42.204;24.686;2023-10-08T10:11:12;1.50;;;0.60;;
7667;SDS011;3876;42.204;24.686;2023-10-08T10:13:41;1.05;;;0.85;;
7667;SDS011;3876;42.204;24.686;2023-10-08T10:16:10;0.67;;;0.67;;
7667;SDS011;3876;42.204;24.686;2023-10-08T10:18:43;0.97;;;0.93;;
7667;SDS011;3876;42.204;24.686;2023-10-08T10:21:24;0.60;;;0.60;;
7667;SDS011;3876;42.204;24.686;2023-10-08T10:24:01;0.50;;;0.50;;
7667;SDS011;3876;42.204;24.686;2023-10-08T10:26:31;4.80;;;0.93;;
7667;SDS011;3876;42.204;24.686;2023-10-08T10:31:56;2.50;;;0.75;;
7667;SDS011;3876;42.204;24.686;2023-10-08T10:34:24;2.50;;;0.80;;
7667;SDS011;3876;42.204;24.686;2023-10-08T10:36:52;0.63;;;0.50;;
7667;SDS011;3876;42.204;24.686;2023-10-08T10:39:22;0.60;;;0.60;;
7667;SDS011;3876;42.204;24.686;2023-10-08T10:41:53;0.40;;;0.40;;
7667;SDS011;3876;42.204;24.686;2023-10-08T10:44:22;0.60;;;0.60;;
7667;SDS011;3876;42.204;24.686;2023-10-08T10:46:50;0.50;;;0.50;;
7667;SDS011;3876;42.204;24.686;2023-10-08T10:49:18;3.42;;;0.77;;
7667;SDS011;3876;42.204;24.686;2023-10-08T10:51:47;0.95;;;0.95;;
7667;SDS011;3876;42.204;24.686;2023-10-08T10:54:17;1.77;;;0.73;;
7667;SDS011;3876;42.204;24.686;2023-10-08T10:56:48;0.93;;;0.70;;
7667;SDS011;3876;42.204;24.686;2023-10-08T10:59:28;0.80;;;0.80;;
7667;SDS011;3876;42.204;24.686;2023-10-08T11:02:01;1.08;;;0.50;;
7667;SDS011;3876;42.204;24.686;2023-10-08T11:04:35;0.68;;;0.50;;
7667;SDS011;3876;42.204;24.686;2023-10-08T11:07:13;0.60;;;0.60;;
7667;SDS011;3876;42.204;24.686;2023-10-08T11:09:41;0.50;;;0.50;;
7667;SDS011;3876;42.204;24.686;2023-10-08T11:12:09;0.40;;;0.40;;
7667;SDS011;3876;42.204;24.686;2023-10-08T11:14:45;0.40;;;0.40;;
7667;SDS011;3876;42.204;24.686;2023-10-08T11:17:13;0.70;;;0.60;;
7667;SDS011;3876;42.204;24.686;2023-10-08T11:19:42;0.60;;;0.60;;
7667;SDS011;3876;42.204;24.686;2023-10-08T11:22:11;8.48;;;0.95;;
7667;SDS011;3876;42.204;24.686;2023-10-08T11:24:41;0.60;;;0.60;;
7667;SDS011;3876;42.204;24.686;2023-10-08T11:27:12;0.55;;;0.55;;
7667;SDS011;3876;42.204;24.686;2023-10-08T11:29:46;0.45;;;0.40;;
7667;SDS011;3876;42.204;24.686;2023-10-08T11:32:21;0.95;;;0.50;;
7667;SDS011;3876;42.204;24.686;2023-10-08T11:34:55;1.45;;;0.70;;
7667;SDS011;3876;42.204;24.686;2023-10-08T11:37:28;0.80;;;0.80;;
7667;SDS011;3876;42.204;24.686;2023-10-08T11:39:55;0.60;;;0.57;;
7667;SDS011;3876;42.204;24.686;2023-10-08T11:42:23;0.50;;;0.50;;
7667;SDS011;3876;42.204;24.686;2023-10-08T11:45:09;0.50;;;0.38;;
7667;SDS011;3876;42.204;24.686;2023-10-08T11:47:49;1.27;;;1.17;;
7667;SDS011;3876;42.204;24.686;2023-10-08T11:50:23;0.68;;;0.68;;
7667;SDS011;3876;42.204;24.686;2023-10-08T11:52:56;0.82;;;0.82;;
7667;SDS011;3876;42.204;24.686;2023-10-08T11:55:30;0.50;;;0.50;;
7667;SDS011;3876;42.204;24.686;2023-10-08T11:58:01;1.98;;;0.85;;
7667;SDS011;3876;42.204;24.686;2023-10-08T12:00:35;0.73;;;0.73;;
7667;SDS011;3876;42.204;24.686;2023-10-08T12:03:09;0.40;;;0.40;;
7667;SDS011;3876;42.204;24.686;2023-10-08T12:05:38;2.42;;;0.57;;
7667;SDS011;3876;42.204;24.686;2023-10-08T12:08:12;0.60;;;0.60;;
7667;SDS011;3876;42.204;24.686;2023-10-08T12:10:41;0.77;;;0.70;;
7667;SDS011;3876;42.204;24.686;2023-10-08T12:13:11;1.20;;;0.60;;
7667;SDS011;3876;42.204;24.686;2023-10-08T12:15:38;2.05;;;0.70;;
7667;SDS011;3876;42.204;24.686;2023-10-08T12:18:07;0.93;;;0.65;;
7667;SDS011;3876;42.204;24.686;2023-10-08T12:20:51;0.38;;;0.38;;
7667;SDS011;3876;42.204;24.686;2023-10-08T12:23:19;0.80;;;0.80;;
7667;SDS011;3876;42.204;24.686;2023-10-08T12:25:51;0.43;;;0.43;;
7667;SDS011;3876;42.204;24.686;2023-10-08T12:28:21;1.25;;;1.17;;
7667;SDS011;3876;42.204;24.686;2023-10-08T12:30:48;2.80;;;0.63;;
7667;SDS011;3876;42.204;24.686;2023-10-08T12:33:17;1.27;;;1.05;;
7667;SDS011;3876;42.204;24.686;2023-10-08T12:35:45;0.50;;;0.50;;
7667;SDS011;3876;42.204;24.686;2023-10-08T12:38:14;0.90;;;0.75;;
7667;SDS011;3876;42.204;24.686;2023-10-08T12:40:44;0.68;;;0.68;;
7667;SDS011;3876;42.204;24.686;2023-10-08T12:43:18;1.20;;;0.70;;
7667;SDS011;3876;42.204;24.686;2023-10-08T12:45:46;0.50;;;0.50;;
7667;SDS011;3876;42.204;24.686;2023-10-08T12:48:18;0.70;;;0.70;;
7667;SDS011;3876;42.204;24.686;2023-10-08T12:50:49;0.80;;;0.77;;
7667;SDS011;3876;42.204;24.686;2023-10-08T12:53:23;0.82;;;0.77;;
7667;SDS011;3876;42.204;24.686;2023-10-08T12:55:58;0.77;;;0.68;;
7667;SDS011;3876;42.204;24.686;2023-10-08T12:58:30;3.03;;;0.70;;
7667;SDS011;3876;42.204;24.686;2023-10-08T13:01:04;0.80;;;0.80;;
7667;SDS011;3876;42.204;24.686;2023-10-08T13:03:34;1.65;;;0.75;;
7667;SDS011;3876;42.204;24.686;2023-10-08T13:06:06;3.25;;;0.60;;
7667;SDS011;3876;42.204;24.686;2023-10-08T13:08:37;0.88;;;0.70;;
7667;SDS011;3876;42.204;24.686;2023-10-08T13:11:05;0.77;;;0.65;;
7667;SDS011;3876;42.204;24.686;2023-10-08T13:13:31;0.60;;;0.60;;
7667;SDS011;3876;42.204;24.686;2023-10-08T13:15:59;0.85;;;0.70;;
7667;SDS011;3876;42.204;24.686;2023-10-08T13:21:02;4.53;;;0.80;;
7667;SDS011;3876;42.204;24.686;2023-10-08T13:23:29;1.83;;;1.00;;
7667;SDS011;3876;42.204;24.686;2023-10-08T13:26:00;0.50;;;0.50;;
7667;SDS011;3876;42.204;24.686;2023-10-08T13:28:29;0.50;;;0.50;;
7667;SDS011;3876;42.204;24.686;2023-10-08T13:30:59;0.80;;;0.80;;
7667;SDS011;3876;42.204;24.686;2023-10-08T13:33:31;0.75;;;0.70;;
7667;SDS011;3876;42.204;24.686;2023-10-08T13:35:58;0.60;;;0.60;;
7667;SDS011;3876;42.204;24.686;2023-10-08T13:38:25;1.17;;;0.60;;
7667;SDS011;3876;42.204;24.686;2023-10-08T13:40:53;2.67;;;0.63;;
7667;SDS011;3876;42.204;24.686;2023-10-08T13:43:30;3.17;;;0.50;;
7667;SDS011;3876;42.204;24.686;2023-10-08T13:46:04;0.67;;;0.67;;
7667;SDS011;3876;42.204;24.686;2023-10-08T13:48:32;0.80;;;0.50;;
7667;SDS011;3876;42.204;24.686;2023-10-08T13:51:01;5.30;;;0.60;;
7667;SDS011;3876;42.204;24.686;2023-10-08T13:53:29;0.80;;;0.80;;
7667;SDS011;3876;42.204;24.686;2023-10-08T13:56:03;1.20;;;0.50;;
7667;SDS011;3876;42.204;24.686;2023-10-08T13:58:31;0.77;;;0.70;;
7667;SDS011;3876;42.204;24.686;2023-10-08T14:01:00;0.73;;;0.73;;
7667;SDS011;3876;42.204;24.686;2023-10-08T14:03:39;0.60;;;0.60;;
7667;SDS011;3876;42.204;24.686;2023-10-08T14:06:06;0.90;;;0.90;;
7667;SDS011;3876;42.204;24.686;2023-10-08T14:08:33;1.13;;;0.90;;
7667;SDS011;3876;42.204;24.686;2023-10-08T14:11:00;0.50;;;0.50;;
7667;SDS011;3876;42.204;24.686;2023-10-08T14:13:28;0.45;;;0.45;;
7667;SDS011;3876;42.204;24.686;2023-10-08T14:15:58;0.50;;;0.50;;
7667;SDS011;3876;42.204;24.686;2023-10-08T14:18:30;1.30;;;1.15;;
7667;SDS011;3876;42.204;24.686;2023-10-08T14:21:05;0.93;;;0.70;;
7667;SDS011;3876;42.204;24.686;2023-10-08T14:23:35;0.50;;;0.50;;
7667;SDS011;3876;42.204;24.686;2023-10-08T14:26:04;0.87;;;0.63;;
7667;SDS011;3876;42.204;24.686;2023-10-08T14:28:32;0.63;;;0.53;;
7667;SDS011;3876;42.204;24.686;2023-10-08T14:31:17;0.60;;;0.60;;
7667;SDS011;3876;42.204;24.686;2023-10-08T14:33:47;3.80;;;0.87;;
7667;SDS011;3876;42.204;24.686;2023-10-08T14:36:30;1.60;;;0.90;;
7667;SDS011;3876;42.204;24.686;2023-10-08T14:39:15;2.60;;;0.50;;
7667;SDS011;3876;42.204;24.686;2023-10-08T14:41:59;2.10;;;0.90;;
7667;SDS011;3876;42.204;24.686;2023-10-08T14:44:43;0.40;;;0.40;;
7667;SDS011;3876;42.204;24.686;2023-10-08T14:47:13;0.80;;;0.80;;
7667;SDS011;3876;42.204;24.686;2023-10-08T14:49:40;1.03;;;0.70;;
7667;SDS011;3876;42.204;24.686;2023-10-08T14:52:07;0.60;;;0.60;;
7667;SDS011;3876;42.204;24.686;2023-10-08T14:54:34;0.70;;;0.70;;
7667;SDS011;3876;42.204;24.686;2023-10-08T14:57:02;2.17;;;0.70;;
7667;SDS011;3876;42.204;24.686;2023-10-08T14:59:30;0.50;;;0.50;;
7667;SDS011;3876;42.204;24.686;2023-10-08T15:01:58;0.60;;;0.60;;
7667;SDS011;3876;42.204;24.686;2023-10-08T15:04:26;0.80;;;0.80;;
7667;SDS011;3876;42.204;24.686;2023-10-08T15:06:54;0.90;;;0.90;;
7667;SDS011;3876;42.204;24.686;2023-10-08T15:09:21;0.70;;;0.70;;
7667;SDS011;3876;42.204;24.686;2023-10-08T15:11:49;1.10;;;1.10;;
7667;SDS011;3876;42.204;24.686;2023-10-08T15:14:16;0.60;;;0.60;;
7667;SDS011;3876;42.204;24.686;2023-10-08T15:16:44;2.70;;;1.67;;
7667;SDS011;3876;42.204;24.686;2023-10-08T15:19:17;4.37;;;1.10;;
7667;SDS011;3876;42.204;24.686;2023-10-08T15:21:45;2.17;;;0.60;;
7667;SDS011;3876;42.204;24.686;2023-10-08T15:24:16;0.57;;;0.47;;
7667;SDS011;3876;42.204;24.686;2023-10-08T15:26:43;0.70;;;0.60;;
7667;SDS011;3876;42.204;24.686;2023-10-08T15:29:10;0.60;;;0.60;;
7667;SDS011;3876;42.204;24.686;2023-10-08T15:31:38;3.57;;;0.80;;